Rodney Mitchell — WCV8372 — position and weather

sailwx.info

Track history (hours):
 
Tides and Currents Weather Stations Pressure Air Temp Water Temp Dewpoint Dewpoint Depression Visibility Wind Speed Wind Dir Waves Ship Positions

Rodney Mitchell

Owner: VINTON CROSBY INC, GOLDEN MEADOW, LA. More information available from US FCC via Universal Licensing System and Coast Guard Vessel Documentation Center.

Last reported at 2014-Dec-19 10:31 UTC. Time now 2014-Dec-19 10:47 UTC.
Position N 29°47' W 095°05'.

; draft 3 m.

Type: Towing. MMSI: 367028860.

Date/timePositionNaut miles runAvg speedWind from/ knotsBaromVisibWave heightAir tempDewpointWater temp
2014-Dec-19 10:31N 29°47' W 095°05'9 1.0
2014-Dec-19 01:33N 29°43' W 095°15'0 0.0
2014-Dec-19 00:33N 29°43' W 095°15'0 0.0
2014-Dec-18 21:15N 29°43' W 095°15'0 0.0
2014-Dec-18 20:28N 29°43' W 095°15'0 0.0
2014-Dec-18 18:24N 29°43' W 095°15'0 0.0
2014-Dec-18 16:06N 29°43' W 095°15'0 0.0
2014-Dec-18 15:33N 29°43' W 095°15'0 0.0
2014-Dec-18 14:33N 29°43' W 095°15'2 1.6
2014-Dec-18 13:33N 29°44' W 095°13'5 4.4
2014-Dec-18 12:27N 29°44' W 095°07'3 0.4
2014-Dec-18 03:22N 29°45' W 095°04'4 4.7
2014-Dec-18 02:33N 29°42' W 095°00'5 5.4
2014-Dec-18 01:33N 29°37' W 094°57'6 5.8
2014-Dec-18 00:33N 29°32' W 094°54'  
2014-Dec-12 14:21N 29°32' W 094°29'6 5.5
2014-Dec-12 13:20N 29°29' W 094°35'6 5.4
2014-Dec-12 12:11N 29°27' W 094°42'3 5.2
2014-Dec-12 11:32N 29°25' W 094°44'8 3.8
2014-Dec-12 09:28N 29°29' W 094°52'5 5.6
2014-Dec-12 08:33N 29°33' W 094°55'5 5.5
2014-Dec-12 07:33N 29°38' W 094°58'5 5.2
2014-Dec-12 06:33N 29°43' W 095°01'5 4.7
2014-Dec-12 05:33N 29°46' W 095°05'2 1.6
2014-Dec-12 04:33N 29°48' W 095°04'0 0.0
2014-Dec-12 03:33N 29°48' W 095°04'0 0.0
2014-Dec-12 02:33N 29°48' W 095°04'0 0.0
2014-Dec-12 01:33N 29°48' W 095°04'0 0.0
2014-Dec-12 00:33N 29°48' W 095°04'0 0.0
2014-Dec-11 23:33N 29°47' W 095°04'0 0.1
2014-Dec-11 22:34N 29°48' W 095°04'0 0.0
2014-Dec-11 21:33N 29°48' W 095°04'0 0.0
2014-Dec-11 20:33N 29°48' W 095°04'0 0.0
2014-Dec-11 19:33N 29°48' W 095°04'0 0.0
2014-Dec-11 18:34N 29°48' W 095°04'0 0.0
2014-Dec-11 17:33N 29°48' W 095°04'0 0.0
2014-Dec-11 16:33N 29°48' W 095°04'0 0.0
2014-Dec-11 15:33N 29°48' W 095°04'0 0.0
2014-Dec-11 14:33N 29°48' W 095°04'2 1.6
2014-Dec-11 13:34N 29°46' W 095°05'1 1.2
2014-Dec-11 12:33N 29°46' W 095°06'0 0.0
2014-Dec-11 11:33N 29°46' W 095°06'0 0.0
2014-Dec-11 10:33N 29°46' W 095°06'0 0.0
2014-Dec-11 09:33N 29°46' W 095°06'0 0.0
2014-Dec-11 08:33N 29°46' W 095°06'0 0.0
2014-Dec-11 07:34N 29°46' W 095°06'0 0.2
2014-Dec-11 06:33N 29°46' W 095°06'2 2.4
2014-Dec-11 05:33N 29°48' W 095°04'2 2.1
2014-Dec-11 04:33N 29°46' W 095°05'1 1.1
2014-Dec-11 03:33N 29°47' W 095°06'0 0.0
2014-Dec-11 02:33N 29°47' W 095°06'0 0.0
2014-Dec-11 01:33N 29°47' W 095°06'0 0.0
2014-Dec-11 00:34N 29°47' W 095°06'0 0.0
2014-Dec-10 23:33N 29°47' W 095°06'0 0.0
2014-Dec-10 22:33N 29°47' W 095°06'0 0.0
2014-Dec-10 21:33N 29°47' W 095°06'0 0.0
2014-Dec-10 20:34N 29°47' W 095°06'0 0.0
2014-Dec-10 19:33N 29°47' W 095°06'0 0.0
2014-Dec-10 18:33N 29°47' W 095°06'0 0.0
2014-Dec-10 17:33N 29°47' W 095°06'0 0.0
2014-Dec-10 16:34N 29°47' W 095°06'0 0.0
2014-Dec-10 15:33N 29°47' W 095°06'1 1.0
2014-Dec-10 14:34N 29°46' W 095°06'4 3.8
2014-Dec-10 13:33N 29°45' W 095°10'4 4.4
2014-Dec-10 12:33N 29°43' W 095°15'0 0.0
2014-Dec-10 11:33N 29°43' W 095°15'0 0.0
2014-Dec-10 10:34N 29°43' W 095°15'0 0.0
2014-Dec-10 09:33N 29°43' W 095°15'0 0.0
2014-Dec-10 08:34N 29°43' W 095°15'0 0.0
2014-Dec-10 07:33N 29°43' W 095°15'0 0.0
2014-Dec-10 06:33N 29°43' W 095°15'0 0.0
2014-Dec-10 05:33N 29°43' W 095°15'0 0.0
2014-Dec-10 04:33N 29°43' W 095°15'0 0.0
2014-Dec-10 03:34N 29°43' W 095°15'0 0.0
2014-Dec-10 02:33N 29°43' W 095°15'0 0.0
2014-Dec-10 01:33N 29°43' W 095°15'0 0.0
2014-Dec-10 00:33N 29°43' W 095°15'0 0.0
2014-Dec-09 23:33N 29°43' W 095°15'0 0.0
2014-Dec-09 22:33N 29°43' W 095°15'1 0.8
2014-Dec-09 21:34N 29°44' W 095°14'4 4.3
2014-Dec-09 20:33N 29°44' W 095°09'4 4.3
2014-Dec-09 19:33N 29°46' W 095°04'4 4.3
2014-Dec-09 18:34N 29°42' W 095°01'4 4.1
2014-Dec-09 17:33N 29°39' W 094°58'5 5.1
2014-Dec-09 16:33N 29°35' W 094°56'5 4.9
2014-Dec-09 15:33N 29°30' W 094°53'5 4.5
2014-Dec-09 14:33N 29°26' W 094°50'5 4.3
2014-Dec-09 13:30N 29°22' W 094°48'5 4.5
2014-Dec-09 12:30N 29°25' W 094°44'3 2.7
2014-Dec-09 11:31N 29°27' W 094°41'  
Track history (hours):
 
Tides and Currents Weather Stations Pressure Air Temp Water Temp Dewpoint Dewpoint Depression Visibility Wind Speed Wind Dir Waves Ship Positions

Rodney Mitchell

Owner: VINTON CROSBY INC, GOLDEN MEADOW, LA. More information available from US FCC via Universal Licensing System and Coast Guard Vessel Documentation Center.

Last reported at 2014-Dec-19 10:31 UTC. Time now 2014-Dec-19 10:47 UTC.
Position N 29°47' W 095°05'.

; draft 3 m.

Type: Towing. MMSI: 367028860.

Date/timePositionNaut miles runAvg speedWind from/ knotsBaromVisibWave heightAir tempDewpointWater temp
2014-Dec-19 10:31N 29°47' W 095°05'9 1.0
2014-Dec-19 01:33N 29°43' W 095°15'0 0.0
2014-Dec-19 00:33N 29°43' W 095°15'0 0.0
2014-Dec-18 21:15N 29°43' W 095°15'0 0.0
2014-Dec-18 20:28N 29°43' W 095°15'0 0.0
2014-Dec-18 18:24N 29°43' W 095°15'0 0.0
2014-Dec-18 16:06N 29°43' W 095°15'0 0.0
2014-Dec-18 15:33N 29°43' W 095°15'0 0.0
2014-Dec-18 14:33N 29°43' W 095°15'2 1.6
2014-Dec-18 13:33N 29°44' W 095°13'5 4.4
2014-Dec-18 12:27N 29°44' W 095°07'3 0.4
2014-Dec-18 03:22N 29°45' W 095°04'4 4.7
2014-Dec-18 02:33N 29°42' W 095°00'5 5.4
2014-Dec-18 01:33N 29°37' W 094°57'6 5.8
2014-Dec-18 00:33N 29°32' W 094°54'  
2014-Dec-12 14:21N 29°32' W 094°29'6 5.5
2014-Dec-12 13:20N 29°29' W 094°35'6 5.4
2014-Dec-12 12:11N 29°27' W 094°42'3 5.2
2014-Dec-12 11:32N 29°25' W 094°44'8 3.8
2014-Dec-12 09:28N 29°29' W 094°52'5 5.6
2014-Dec-12 08:33N 29°33' W 094°55'5 5.5
2014-Dec-12 07:33N 29°38' W 094°58'5 5.2
2014-Dec-12 06:33N 29°43' W 095°01'5 4.7
2014-Dec-12 05:33N 29°46' W 095°05'2 1.6
2014-Dec-12 04:33N 29°48' W 095°04'0 0.0
2014-Dec-12 03:33N 29°48' W 095°04'0 0.0
2014-Dec-12 02:33N 29°48' W 095°04'0 0.0
2014-Dec-12 01:33N 29°48' W 095°04'0 0.0
2014-Dec-12 00:33N 29°48' W 095°04'0 0.0
2014-Dec-11 23:33N 29°47' W 095°04'0 0.1
2014-Dec-11 22:34N 29°48' W 095°04'0 0.0
2014-Dec-11 21:33N 29°48' W 095°04'0 0.0
2014-Dec-11 20:33N 29°48' W 095°04'0 0.0
2014-Dec-11 19:33N 29°48' W 095°04'0 0.0
2014-Dec-11 18:34N 29°48' W 095°04'0 0.0
2014-Dec-11 17:33N 29°48' W 095°04'0 0.0
2014-Dec-11 16:33N 29°48' W 095°04'0 0.0
2014-Dec-11 15:33N 29°48' W 095°04'0 0.0
2014-Dec-11 14:33N 29°48' W 095°04'2 1.6
2014-Dec-11 13:34N 29°46' W 095°05'1 1.2
2014-Dec-11 12:33N 29°46' W 095°06'0 0.0
2014-Dec-11 11:33N 29°46' W 095°06'0 0.0
2014-Dec-11 10:33N 29°46' W 095°06'0 0.0
2014-Dec-11 09:33N 29°46' W 095°06'0 0.0
2014-Dec-11 08:33N 29°46' W 095°06'0 0.0
2014-Dec-11 07:34N 29°46' W 095°06'0 0.2
2014-Dec-11 06:33N 29°46' W 095°06'2 2.4
2014-Dec-11 05:33N 29°48' W 095°04'2 2.1
2014-Dec-11 04:33N 29°46' W 095°05'1 1.1
2014-Dec-11 03:33N 29°47' W 095°06'0 0.0
2014-Dec-11 02:33N 29°47' W 095°06'0 0.0
2014-Dec-11 01:33N 29°47' W 095°06'0 0.0
2014-Dec-11 00:34N 29°47' W 095°06'0 0.0
2014-Dec-10 23:33N 29°47' W 095°06'0 0.0
2014-Dec-10 22:33N 29°47' W 095°06'0 0.0
2014-Dec-10 21:33N 29°47' W 095°06'0 0.0
2014-Dec-10 20:34N 29°47' W 095°06'0 0.0
2014-Dec-10 19:33N 29°47' W 095°06'0 0.0
2014-Dec-10 18:33N 29°47' W 095°06'0 0.0
2014-Dec-10 17:33N 29°47' W 095°06'0 0.0
2014-Dec-10 16:34N 29°47' W 095°06'0 0.0
2014-Dec-10 15:33N 29°47' W 095°06'1 1.0
2014-Dec-10 14:34N 29°46' W 095°06'4 3.8
2014-Dec-10 13:33N 29°45' W 095°10'4 4.4
2014-Dec-10 12:33N 29°43' W 095°15'0 0.0
2014-Dec-10 11:33N 29°43' W 095°15'0 0.0
2014-Dec-10 10:34N 29°43' W 095°15'0 0.0
2014-Dec-10 09:33N 29°43' W 095°15'0 0.0
2014-Dec-10 08:34N 29°43' W 095°15'0 0.0
2014-Dec-10 07:33N 29°43' W 095°15'0 0.0
2014-Dec-10 06:33N 29°43' W 095°15'0 0.0
2014-Dec-10 05:33N 29°43' W 095°15'0 0.0
2014-Dec-10 04:33N 29°43' W 095°15'0 0.0
2014-Dec-10 03:34N 29°43' W 095°15'0 0.0
2014-Dec-10 02:33N 29°43' W 095°15'0 0.0
2014-Dec-10 01:33N 29°43' W 095°15'0 0.0
2014-Dec-10 00:33N 29°43' W 095°15'0 0.0
2014-Dec-09 23:33N 29°43' W 095°15'0 0.0
2014-Dec-09 22:33N 29°43' W 095°15'1 0.8
2014-Dec-09 21:34N 29°44' W 095°14'4 4.3
2014-Dec-09 20:33N 29°44' W 095°09'4 4.3
2014-Dec-09 19:33N 29°46' W 095°04'4 4.3
2014-Dec-09 18:34N 29°42' W 095°01'4 4.1
2014-Dec-09 17:33N 29°39' W 094°58'5 5.1
2014-Dec-09 16:33N 29°35' W 094°56'5 4.9
2014-Dec-09 15:33N 29°30' W 094°53'5 4.5
2014-Dec-09 14:33N 29°26' W 094°50'5 4.3
2014-Dec-09 13:30N 29°22' W 094°48'5 4.5
2014-Dec-09 12:30N 29°25' W 094°44'3 2.7
2014-Dec-09 11:31N 29°27' W 094°41'  

Dump ship's entire track history